sensor_id;sensor_type;location;lat;lon;timestamp;pressure;altitude;pressure_sealevel;temperature;humidity
15487;BME280;7845;53.698;10.078;2023-07-16T00:00:29;100456.75;;;25.54;100.00
15487;BME280;7845;53.698;10.078;2023-07-16T00:02:54;100468.94;;;25.58;100.00
15487;BME280;7845;53.698;10.078;2023-07-16T00:05:19;100477.09;;;25.56;100.00
15487;BME280;7845;53.698;10.078;2023-07-16T00:07:45;100490.59;;;25.66;100.00
15487;BME280;7845;53.698;10.078;2023-07-16T00:10:10;100536.00;;;25.78;100.00
15487;BME280;7845;53.698;10.078;2023-07-16T00:12:36;100501.66;;;25.61;100.00
15487;BME280;7845;53.698;10.078;2023-07-16T00:15:02;100490.06;;;25.50;100.00
15487;BME280;7845;53.698;10.078;2023-07-16T00:17:27;100478.69;;;25.46;100.00
15487;BME280;7845;53.698;10.078;2023-07-16T00:19:52;100461.84;;;25.33;100.00
15487;BME280;7845;53.698;10.078;2023-07-16T00:22:18;100436.84;;;24.98;100.00
15487;BME280;7845;53.698;10.078;2023-07-16T00:24:43;100427.03;;;24.98;100.00
15487;BME280;7845;53.698;10.078;2023-07-16T00:27:08;100444.38;;;25.16;100.00
15487;BME280;7845;53.698;10.078;2023-07-16T00:29:34;100442.16;;;25.10;100.00
15487;BME280;7845;53.698;10.078;2023-07-16T00:32:00;100458.78;;;25.26;100.00
15487;BME280;7845;53.698;10.078;2023-07-16T00:34:25;100462.03;;;25.43;100.00
15487;BME280;7845;53.698;10.078;2023-07-16T00:36:51;100461.69;;;25.47;100.00
15487;BME280;7845;53.698;10.078;2023-07-16T00:39:16;100468.22;;;25.56;100.00
15487;BME280;7845;53.698;10.078;2023-07-16T00:41:41;100477.22;;;25.66;100.00
15487;BME280;7845;53.698;10.078;2023-07-16T00:44:07;100491.28;;;25.57;100.00
15487;BME280;7845;53.698;10.078;2023-07-16T00:46:32;100491.69;;;25.63;100.00
15487;BME280;7845;53.698;10.078;2023-07-16T00:48:58;100488.50;;;25.58;100.00
15487;BME280;7845;53.698;10.078;2023-07-16T00:51:25;100484.97;;;25.58;100.00
15487;BME280;7845;53.698;10.078;2023-07-16T00:53:51;100480.13;;;25.63;100.00
15487;BME280;7845;53.698;10.078;2023-07-16T00:56:17;100471.75;;;25.56;100.00
15487;BME280;7845;53.698;10.078;2023-07-16T00:58:43;100488.97;;;25.52;100.00
15487;BME280;7845;53.698;10.078;2023-07-16T01:01:09;100500.84;;;25.48;100.00
15487;BME280;7845;53.698;10.078;2023-07-16T01:03:34;100499.44;;;25.43;100.00
15487;BME280;7845;53.698;10.078;2023-07-16T01:06:09;100497.41;;;25.46;100.00
15487;BME280;7845;53.698;10.078;2023-07-16T01:11:16;100466.63;;;25.41;100.00
15487;BME280;7845;53.698;10.078;2023-07-16T01:13:42;100458.94;;;25.36;100.00
15487;BME280;7845;53.698;10.078;2023-07-16T01:16:21;100483.75;;;25.38;100.00
15487;BME280;7845;53.698;10.078;2023-07-16T01:18:48;100500.31;;;25.43;100.00
15487;BME280;7845;53.698;10.078;2023-07-16T01:21:15;100508.94;;;25.47;100.00
15487;BME280;7845;53.698;10.078;2023-07-16T01:29:36;100485.75;;;25.47;100.00
15487;BME280;7845;53.698;10.078;2023-07-16T01:32:05;100488.09;;;25.52;100.00
15487;BME280;7845;53.698;10.078;2023-07-16T01:34:33;100482.13;;;25.48;100.00
15487;BME280;7845;53.698;10.078;2023-07-16T01:37:06;100487.16;;;25.40;100.00
15487;BME280;7845;53.698;10.078;2023-07-16T01:39:32;100482.53;;;25.42;100.00
15487;BME280;7845;53.698;10.078;2023-07-16T01:42:01;100489.84;;;25.40;100.00
15487;BME280;7845;53.698;10.078;2023-07-16T01:44:27;100490.19;;;25.36;100.00
15487;BME280;7845;53.698;10.078;2023-07-16T01:47:15;100503.94;;;25.42;100.00
15487;BME280;7845;53.698;10.078;2023-07-16T01:49:48;100504.59;;;25.33;100.00
15487;BME280;7845;53.698;10.078;2023-07-16T01:52:13;100506.31;;;25.34;100.00
15487;BME280;7845;53.698;10.078;2023-07-16T01:54:39;100505.59;;;25.32;100.00
15487;BME280;7845;53.698;10.078;2023-07-16T01:57:04;100500.56;;;25.27;100.00
15487;BME280;7845;53.698;10.078;2023-07-16T01:59:30;100491.25;;;25.33;100.00
15487;BME280;7845;53.698;10.078;2023-07-16T02:01:55;100488.91;;;25.28;100.00
15487;BME280;7845;53.698;10.078;2023-07-16T02:04:20;100493.53;;;25.26;100.00
15487;BME280;7845;53.698;10.078;2023-07-16T02:06:46;100491.47;;;25.30;100.00
15487;BME280;7845;53.698;10.078;2023-07-16T02:09:13;100496.72;;;25.31;100.00
15487;BME280;7845;53.698;10.078;2023-07-16T02:11:38;100501.41;;;25.28;100.00
15487;BME280;7845;53.698;10.078;2023-07-16T02:14:04;100516.59;;;25.27;100.00
15487;BME280;7845;53.698;10.078;2023-07-16T02:16:29;100525.19;;;25.20;100.00
15487;BME280;7845;53.698;10.078;2023-07-16T02:18:55;100523.47;;;25.19;100.00
15487;BME280;7845;53.698;10.078;2023-07-16T02:21:20;100521.44;;;25.10;100.00
15487;BME280;7845;53.698;10.078;2023-07-16T02:23:45;100512.06;;;25.04;100.00
15487;BME280;7845;53.698;10.078;2023-07-16T02:26:10;100501.28;;;25.06;100.00
15487;BME280;7845;53.698;10.078;2023-07-16T02:28:36;100508.94;;;25.10;100.00
15487;BME280;7845;53.698;10.078;2023-07-16T02:31:02;100512.56;;;25.09;100.00
15487;BME280;7845;53.698;10.078;2023-07-16T02:33:28;100498.63;;;25.06;100.00
15487;BME280;7845;53.698;10.078;2023-07-16T02:35:53;100503.97;;;24.93;100.00
15487;BME280;7845;53.698;10.078;2023-07-16T02:38:20;100506.97;;;24.89;100.00
15487;BME280;7845;53.698;10.078;2023-07-16T02:40:46;100504.00;;;24.81;100.00
15487;BME280;7845;53.698;10.078;2023-07-16T02:43:12;100517.53;;;24.77;100.00
15487;BME280;7845;53.698;10.078;2023-07-16T02:45:38;100525.53;;;24.77;100.00
15487;BME280;7845;53.698;10.078;2023-07-16T02:48:04;100523.09;;;24.74;100.00
15487;BME280;7845;53.698;10.078;2023-07-16T02:50:33;100521.78;;;24.80;100.00
15487;BME280;7845;53.698;10.078;2023-07-16T02:52:59;100519.66;;;24.72;100.00
15487;BME280;7845;53.698;10.078;2023-07-16T02:55:24;100525.22;;;24.69;100.00
15487;BME280;7845;53.698;10.078;2023-07-16T02:57:49;100523.41;;;24.70;100.00
15487;BME280;7845;53.698;10.078;2023-07-16T03:00:15;100528.75;;;24.70;100.00
15487;BME280;7845;53.698;10.078;2023-07-16T03:02:40;100525.44;;;24.66;100.00
15487;BME280;7845;53.698;10.078;2023-07-16T03:05:07;100519.25;;;24.66;100.00
15487;BME280;7845;53.698;10.078;2023-07-16T03:07:32;100524.03;;;24.73;100.00
15487;BME280;7845;53.698;10.078;2023-07-16T03:09:58;100517.53;;;24.65;100.00
15487;BME280;7845;53.698;10.078;2023-07-16T03:12:24;100533.22;;;24.69;100.00
15487;BME280;7845;53.698;10.078;2023-07-16T03:14:50;100531.72;;;24.65;100.00
15487;BME280;7845;53.698;10.078;2023-07-16T03:17:16;100526.91;;;24.33;100.00
15487;BME280;7845;53.698;10.078;2023-07-16T03:19:41;100520.63;;;24.59;100.00
15487;BME280;7845;53.698;10.078;2023-07-16T03:22:08;100513.25;;;24.62;100.00
15487;BME280;7845;53.698;10.078;2023-07-16T03:24:33;100510.94;;;24.58;100.00
15487;BME280;7845;53.698;10.078;2023-07-16T03:27:00;100519.75;;;24.71;100.00
15487;BME280;7845;53.698;10.078;2023-07-16T03:29:26;100515.84;;;24.64;100.00
15487;BME280;7845;53.698;10.078;2023-07-16T03:31:51;100521.38;;;24.61;100.00
15487;BME280;7845;53.698;10.078;2023-07-16T03:34:16;100536.09;;;24.54;100.00
15487;BME280;7845;53.698;10.078;2023-07-16T03:36:42;100536.41;;;24.49;100.00
15487;BME280;7845;53.698;10.078;2023-07-16T03:39:07;100537.63;;;24.58;100.00
15487;BME280;7845;53.698;10.078;2023-07-16T03:41:32;100535.91;;;24.57;100.00
15487;BME280;7845;53.698;10.078;2023-07-16T03:43:58;100526.81;;;24.59;100.00
15487;BME280;7845;53.698;10.078;2023-07-16T03:46:23;100526.59;;;24.62;100.00
15487;BME280;7845;53.698;10.078;2023-07-16T03:48:48;100534.53;;;24.64;100.00
15487;BME280;7845;53.698;10.078;2023-07-16T03:51:14;100533.31;;;24.55;100.00
15487;BME280;7845;53.698;10.078;2023-07-16T03:53:39;100536.63;;;24.59;100.00
15487;BME280;7845;53.698;10.078;2023-07-16T03:56:04;100548.81;;;24.63;100.00
15487;BME280;7845;53.698;10.078;2023-07-16T03:58:30;100558.56;;;24.64;100.00
15487;BME280;7845;53.698;10.078;2023-07-16T04:00:55;100555.53;;;24.68;100.00
15487;BME280;7845;53.698;10.078;2023-07-16T04:03:20;100557.25;;;24.69;100.00
15487;BME280;7845;53.698;10.078;2023-07-16T04:05:46;100564.34;;;24.83;100.00
15487;BME280;7845;53.698;10.078;2023-07-16T04:08:11;100560.50;;;24.87;100.00
15487;BME280;7845;53.698;10.078;2023-07-16T04:10:37;100580.13;;;24.86;100.00
15487;BME280;7845;53.698;10.078;2023-07-16T04:13:02;100575.31;;;24.91;100.00
15487;BME280;7845;53.698;10.078;2023-07-16T04:15:28;100580.44;;;25.07;100.00
15487;BME280;7845;53.698;10.078;2023-07-16T04:17:53;100587.50;;;24.95;100.00
15487;BME280;7845;53.698;10.078;2023-07-16T04:20:19;100592.31;;;24.90;100.00
15487;BME280;7845;53.698;10.078;2023-07-16T04:22:44;100596.28;;;24.85;100.00
15487;BME280;7845;53.698;10.078;2023-07-16T04:25:10;100602.84;;;24.79;100.00
15487;BME280;7845;53.698;10.078;2023-07-16T04:27:37;100605.47;;;24.81;100.00
15487;BME280;7845;53.698;10.078;2023-07-16T04:30:02;100613.25;;;24.84;100.00
15487;BME280;7845;53.698;10.078;2023-07-16T04:32:28;100613.03;;;24.87;100.00
15487;BME280;7845;53.698;10.078;2023-07-16T04:34:53;100610.38;;;24.87;100.00
15487;BME280;7845;53.698;10.078;2023-07-16T04:37:19;100607.69;;;25.12;100.00
15487;BME280;7845;53.698;10.078;2023-07-16T04:39:44;100607.00;;;26.54;100.00
15487;BME280;7845;53.698;10.078;2023-07-16T04:42:09;100599.47;;;28.35;100.00
15487;BME280;7845;53.698;10.078;2023-07-16T04:44:35;100593.53;;;29.44;100.00
15487;BME280;7845;53.698;10.078;2023-07-16T04:47:00;100588.44;;;30.10;100.00
15487;BME280;7845;53.698;10.078;2023-07-16T04:49:27;100581.94;;;31.07;95.10
15487;BME280;7845;53.698;10.078;2023-07-16T04:51:52;100579.22;;;31.44;88.74
15487;BME280;7845;53.698;10.078;2023-07-16T04:54:17;100594.41;;;31.17;90.19
15487;BME280;7845;53.698;10.078;2023-07-16T04:56:43;100595.22;;;30.04;94.98
15487;BME280;7845;53.698;10.078;2023-07-16T04:59:08;100594.38;;;29.54;100.00
15487;BME280;7845;53.698;10.078;2023-07-16T05:01:34;100594.66;;;29.21;100.00
15487;BME280;7845;53.698;10.078;2023-07-16T05:03:59;100602.53;;;28.83;100.00
15487;BME280;7845;53.698;10.078;2023-07-16T05:06:24;100607.53;;;28.67;100.00
15487;BME280;7845;53.698;10.078;2023-07-16T05:08:50;100616.56;;;28.13;100.00
15487;BME280;7845;53.698;10.078;2023-07-16T05:11:15;100608.44;;;27.81;100.00
15487;BME280;7845;53.698;10.078;2023-07-16T05:13:41;100612.97;;;27.70;100.00
15487;BME280;7845;53.698;10.078;2023-07-16T05:16:06;100619.59;;;27.66;100.00
15487;BME280;7845;53.698;10.078;2023-07-16T05:18:31;100615.22;;;27.54;100.00
15487;BME280;7845;53.698;10.078;2023-07-16T05:20:57;100627.09;;;27.72;100.00
15487;BME280;7845;53.698;10.078;2023-07-16T05:23:22;100624.94;;;27.66;100.00
15487;BME280;7845;53.698;10.078;2023-07-16T05:25:49;100632.31;;;27.95;100.00
15487;BME280;7845;53.698;10.078;2023-07-16T05:28:15;100624.91;;;27.77;100.00
15487;BME280;7845;53.698;10.078;2023-07-16T05:30:41;100627.34;;;27.80;100.00
15487;BME280;7845;53.698;10.078;2023-07-16T05:33:06;100625.59;;;27.90;100.00
15487;BME280;7845;53.698;10.078;2023-07-16T05:35:32;100635.38;;;27.91;100.00
15487;BME280;7845;53.698;10.078;2023-07-16T05:37:57;100633.50;;;28.02;100.00
15487;BME280;7845;53.698;10.078;2023-07-16T05:40:22;100633.16;;;27.96;100.00
15487;BME280;7845;53.698;10.078;2023-07-16T05:42:48;100647.50;;;27.74;100.00
15487;BME280;7845;53.698;10.078;2023-07-16T05:45:13;100657.59;;;27.37;100.00
15487;BME280;7845;53.698;10.078;2023-07-16T05:47:38;100651.97;;;27.07;100.00
15487;BME280;7845;53.698;10.078;2023-07-16T05:50:04;100654.72;;;26.94;100.00
15487;BME280;7845;53.698;10.078;2023-07-16T05:52:30;100648.03;;;26.89;100.00
15487;BME280;7845;53.698;10.078;2023-07-16T05:54:56;100659.38;;;26.58;100.00
15487;BME280;7845;53.698;10.078;2023-07-16T05:57:22;100664.72;;;26.58;100.00
15487;BME280;7845;53.698;10.078;2023-07-16T05:59:47;100660.06;;;26.49;100.00
15487;BME280;7845;53.698;10.078;2023-07-16T06:02:13;100669.78;;;26.50;100.00
15487;BME280;7845;53.698;10.078;2023-07-16T06:04:39;100664.78;;;26.45;100.00
15487;BME280;7845;53.698;10.078;2023-07-16T06:07:05;100671.72;;;26.48;100.00
15487;BME280;7845;53.698;10.078;2023-07-16T06:09:31;100659.16;;;26.13;100.00
15487;BME280;7845;53.698;10.078;2023-07-16T06:11:56;100674.66;;;26.21;100.00
15487;BME280;7845;53.698;10.078;2023-07-16T06:14:21;100674.56;;;26.10;100.00
15487;BME280;7845;53.698;10.078;2023-07-16T06:16:47;100669.06;;;25.88;100.00
15487;BME280;7845;53.698;10.078;2023-07-16T06:19:12;100667.94;;;26.03;100.00
15487;BME280;7845;53.698;10.078;2023-07-16T06:21:38;100678.66;;;26.03;100.00
15487;BME280;7845;53.698;10.078;2023-07-16T06:24:04;100683.06;;;25.91;100.00
15487;BME280;7845;53.698;10.078;2023-07-16T06:26:30;100682.91;;;26.05;100.00
15487;BME280;7845;53.698;10.078;2023-07-16T06:28:55;100684.84;;;26.03;100.00
15487;BME280;7845;53.698;10.078;2023-07-16T06:31:20;100685.03;;;25.89;100.00
15487;BME280;7845;53.698;10.078;2023-07-16T06:33:46;100685.31;;;25.97;100.00
15487;BME280;7845;53.698;10.078;2023-07-16T06:36:16;100677.38;;;25.96;100.00
15487;BME280;7845;53.698;10.078;2023-07-16T06:38:41;100679.69;;;25.76;100.00
15487;BME280;7845;53.698;10.078;2023-07-16T06:41:08;100683.41;;;25.86;100.00
15487;BME280;7845;53.698;10.078;2023-07-16T06:43:33;100680.22;;;25.81;100.00
15487;BME280;7845;53.698;10.078;2023-07-16T06:45:58;100682.00;;;25.94;100.00
15487;BME280;7845;53.698;10.078;2023-07-16T06:48:24;100673.84;;;25.71;100.00
15487;BME280;7845;53.698;10.078;2023-07-16T06:50:49;100677.81;;;25.90;100.00
15487;BME280;7845;53.698;10.078;2023-07-16T06:53:15;100681.31;;;26.03;100.00
15487;BME280;7845;53.698;10.078;2023-07-16T06:55:40;100690.44;;;26.00;100.00
15487;BME280;7845;53.698;10.078;2023-07-16T06:58:13;100690.97;;;25.93;100.00
15487;BME280;7845;53.698;10.078;2023-07-16T07:00:39;100694.22;;;25.85;100.00
15487;BME280;7845;53.698;10.078;2023-07-16T07:03:04;100687.84;;;25.99;100.00
15487;BME280;7845;53.698;10.078;2023-07-16T07:05:29;100688.81;;;26.10;100.00
15487;BME280;7845;53.698;10.078;2023-07-16T07:07:55;100693.94;;;26.13;100.00
15487;BME280;7845;53.698;10.078;2023-07-16T07:10:20;100698.06;;;26.30;100.00
15487;BME280;7845;53.698;10.078;2023-07-16T07:12:46;100699.00;;;26.29;100.00
15487;BME280;7845;53.698;10.078;2023-07-16T07:15:11;100699.16;;;26.27;100.00
15487;BME280;7845;53.698;10.078;2023-07-16T07:17:36;100697.19;;;26.29;100.00
15487;BME280;7845;53.698;10.078;2023-07-16T07:20:02;100694.41;;;26.55;100.00
15487;BME280;7845;53.698;10.078;2023-07-16T07:22:28;100696.59;;;26.13;100.00
15487;BME280;7845;53.698;10.078;2023-07-16T07:24:54;100703.91;;;26.35;100.00
15487;BME280;7845;53.698;10.078;2023-07-16T07:27:19;100694.88;;;26.25;100.00
15487;BME280;7845;53.698;10.078;2023-07-16T07:29:44;100697.56;;;26.12;100.00
15487;BME280;7845;53.698;10.078;2023-07-16T07:32:11;100693.44;;;26.32;100.00
15487;BME280;7845;53.698;10.078;2023-07-16T07:34:38;100706.00;;;26.55;100.00
15487;BME280;7845;53.698;10.078;2023-07-16T07:37:04;100694.88;;;26.25;100.00
15487;BME280;7845;53.698;10.078;2023-07-16T07:39:29;100698.00;;;26.43;100.00
15487;BME280;7845;53.698;10.078;2023-07-16T07:41:55;100701.19;;;26.48;100.00
15487;BME280;7845;53.698;10.078;2023-07-16T07:44:20;100696.25;;;26.30;100.00
15487;BME280;7845;53.698;10.078;2023-07-16T07:46:45;100700.22;;;26.49;100.00
15487;BME280;7845;53.698;10.078;2023-07-16T07:49:10;100693.78;;;26.51;100.00
15487;BME280;7845;53.698;10.078;2023-07-16T07:51:36;100687.91;;;26.70;100.00
15487;BME280;7845;53.698;10.078;2023-07-16T07:54:01;100696.31;;;26.76;100.00
15487;BME280;7845;53.698;10.078;2023-07-16T07:56:26;100699.09;;;26.99;100.00
15487;BME280;7845;53.698;10.078;2023-07-16T07:58:52;100699.06;;;26.87;100.00
15487;BME280;7845;53.698;10.078;2023-07-16T08:01:17;100707.59;;;26.69;100.00
15487;BME280;7845;53.698;10.078;2023-07-16T08:03:42;100693.16;;;26.48;100.00
15487;BME280;7845;53.698;10.078;2023-07-16T08:06:08;100699.19;;;26.62;100.00
15487;BME280;7845;53.698;10.078;2023-07-16T08:08:33;100703.66;;;26.62;99.44
15487;BME280;7845;53.698;10.078;2023-07-16T08:10:59;100703.41;;;26.54;100.00
15487;BME280;7845;53.698;10.078;2023-07-16T08:13:24;100695.41;;;26.65;98.66
15487;BME280;7845;53.698;10.078;2023-07-16T08:15:50;100700.16;;;26.85;98.27
15487;BME280;7845;53.698;10.078;2023-07-16T08:18:15;100698.38;;;26.73;96.73
15487;BME280;7845;53.698;10.078;2023-07-16T08:20:40;100695.22;;;27.03;97.05
15487;BME280;7845;53.698;10.078;2023-07-16T08:23:06;100702.66;;;27.10;97.31
15487;BME280;7845;53.698;10.078;2023-07-16T08:25:33;100700.34;;;27.28;97.28
15487;BME280;7845;53.698;10.078;2023-07-16T08:27:58;100695.47;;;27.11;95.85
15487;BME280;7845;53.698;10.078;2023-07-16T08:30:23;100699.31;;;27.64;94.36
15487;BME280;7845;53.698;10.078;2023-07-16T08:32:49;100697.13;;;27.46;91.63
15487;BME280;7845;53.698;10.078;2023-07-16T08:35:15;100685.78;;;27.43;91.40
15487;BME280;7845;53.698;10.078;2023-07-16T08:37:43;100690.06;;;27.68;90.24
15487;BME280;7845;53.698;10.078;2023-07-16T08:40:08;100694.44;;;27.58;87.51
15487;BME280;7845;53.698;10.078;2023-07-16T08:42:39;100682.50;;;27.51;86.38
15487;BME280;7845;53.698;10.078;2023-07-16T08:45:06;100690.16;;;27.66;87.13
15487;BME280;7845;53.698;10.078;2023-07-16T08:47:33;100686.03;;;27.62;86.89
15487;BME280;7845;53.698;10.078;2023-07-16T08:50:00;100683.81;;;27.78;88.33
15487;BME280;7845;53.698;10.078;2023-07-16T08:52:27;100677.94;;;27.95;87.54
15487;BME280;7845;53.698;10.078;2023-07-16T08:54:53;100682.72;;;28.35;87.50
15487;BME280;7845;53.698;10.078;2023-07-16T08:57:19;100672.38;;;27.65;83.93
15487;BME280;7845;53.698;10.078;2023-07-16T08:59:47;100681.22;;;27.99;86.34
15487;BME280;7845;53.698;10.078;2023-07-16T09:02:15;100693.56;;;27.79;85.81
15487;BME280;7845;53.698;10.078;2023-07-16T09:04:40;100706.16;;;27.68;86.87
15487;BME280;7845;53.698;10.078;2023-07-16T09:07:06;100718.94;;;27.53;87.69
15487;BME280;7845;53.698;10.078;2023-07-16T09:09:32;100720.13;;;27.27;93.40
15487;BME280;7845;53.698;10.078;2023-07-16T09:11:58;100723.91;;;26.66;99.57
15487;BME280;7845;53.698;10.078;2023-07-16T09:14:23;100734.53;;;26.91;99.24
15487;BME280;7845;53.698;10.078;2023-07-16T09:16:49;100733.13;;;27.20;96.49
15487;BME280;7845;53.698;10.078;2023-07-16T09:19:15;100724.06;;;27.56;91.56
15487;BME280;7845;53.698;10.078;2023-07-16T09:21:42;100722.84;;;27.82;88.96
15487;BME280;7845;53.698;10.078;2023-07-16T09:24:08;100727.56;;;28.23;86.80
15487;BME280;7845;53.698;10.078;2023-07-16T09:26:36;100726.63;;;28.13;86.59
15487;BME280;7845;53.698;10.078;2023-07-16T09:29:05;100728.69;;;28.10;86.16
15487;BME280;7845;53.698;10.078;2023-07-16T09:31:31;100728.22;;;27.71;88.21
15487;BME280;7845;53.698;10.078;2023-07-16T09:33:56;100729.06;;;27.50;88.15
15487;BME280;7845;53.698;10.078;2023-07-16T09:36:25;100733.19;;;27.42;84.73
15487;BME280;7845;53.698;10.078;2023-07-16T09:38:53;100728.81;;;27.53;83.90
15487;BME280;7845;53.698;10.078;2023-07-16T09:41:20;100731.97;;;27.69;81.74
15487;BME280;7845;53.698;10.078;2023-07-16T09:43:47;100732.59;;;27.83;81.63
15487;BME280;7845;53.698;10.078;2023-07-16T09:46:12;100732.59;;;27.83;81.41
15487;BME280;7845;53.698;10.078;2023-07-16T09:48:37;100733.59;;;28.05;81.65
15487;BME280;7845;53.698;10.078;2023-07-16T09:51:03;100742.59;;;28.15;80.07
15487;BME280;7845;53.698;10.078;2023-07-16T09:53:30;100739.00;;;28.36;77.35
15487;BME280;7845;53.698;10.078;2023-07-16T09:55:58;100732.47;;;28.18;76.48
15487;BME280;7845;53.698;10.078;2023-07-16T09:58:25;100741.41;;;28.50;74.81
15487;BME280;7845;53.698;10.078;2023-07-16T10:00:52;100739.47;;;28.41;76.35
15487;BME280;7845;53.698;10.078;2023-07-16T10:03:17;100742.47;;;28.70;78.05
15487;BME280;7845;53.698;10.078;2023-07-16T10:05:43;100740.03;;;28.56;75.36
15487;BME280;7845;53.698;10.078;2023-07-16T10:08:16;100745.31;;;28.46;75.35
15487;BME280;7845;53.698;10.078;2023-07-16T10:10:43;100759.88;;;28.33;75.87
15487;BME280;7845;53.698;10.078;2023-07-16T10:13:12;100762.84;;;27.96;77.23
15487;BME280;7845;53.698;10.078;2023-07-16T10:15:38;100781.97;;;27.59;76.29
15487;BME280;7845;53.698;10.078;2023-07-16T10:18:05;100773.34;;;27.77;78.29
15487;BME280;7845;53.698;10.078;2023-07-16T10:20:32;100782.47;;;27.64;78.96
15487;BME280;7845;53.698;10.078;2023-07-16T10:22:59;100771.84;;;27.51;77.73
15487;BME280;7845;53.698;10.078;2023-07-16T10:25:34;100778.28;;;27.48;75.51
15487;BME280;7845;53.698;10.078;2023-07-16T10:28:00;100776.63;;;27.59;75.44
15487;BME280;7845;53.698;10.078;2023-07-16T10:30:25;100774.56;;;27.95;73.90
15487;BME280;7845;53.698;10.078;2023-07-16T10:32:51;100782.59;;;28.40;74.67
15487;BME280;7845;53.698;10.078;2023-07-16T10:35:18;100769.06;;;28.30;74.18
15487;BME280;7845;53.698;10.078;2023-07-16T10:37:43;100773.94;;;28.36;72.57
15487;BME280;7845;53.698;10.078;2023-07-16T10:40:13;100774.97;;;28.56;70.97
15487;BME280;7845;53.698;10.078;2023-07-16T10:42:43;100786.06;;;29.05;71.93
15487;BME280;7845;53.698;10.078;2023-07-16T10:45:09;100793.59;;;28.80;70.04
15487;BME280;7845;53.698;10.078;2023-07-16T10:47:36;100792.69;;;28.47;69.96
15487;BME280;7845;53.698;10.078;2023-07-16T10:50:07;100791.91;;;28.79;69.65
15487;BME280;7845;53.698;10.078;2023-07-16T10:52:34;100789.38;;;28.98;70.29
15487;BME280;7845;53.698;10.078;2023-07-16T10:54:59;100791.22;;;29.18;69.35
15487;BME280;7845;53.698;10.078;2023-07-16T10:57:26;100793.66;;;29.21;66.79
15487;BME280;7845;53.698;10.078;2023-07-16T10:59:53;100799.09;;;29.42;67.47
15487;BME280;7845;53.698;10.078;2023-07-16T11:02:21;100797.34;;;29.20;66.92
15487;BME280;7845;53.698;10.078;2023-07-16T11:04:47;100793.31;;;29.26;65.58
15487;BME280;7845;53.698;10.078;2023-07-16T11:07:14;100800.53;;;29.46;66.37
15487;BME280;7845;53.698;10.078;2023-07-16T11:09:50;100806.22;;;29.73;65.71
15487;BME280;7845;53.698;10.078;2023-07-16T11:12:18;100786.50;;;29.73;67.29
15487;BME280;7845;53.698;10.078;2023-07-16T11:14:52;100796.25;;;29.64;64.63
15487;BME280;7845;53.698;10.078;2023-07-16T11:17:18;100808.59;;;29.46;66.43
15487;BME280;7845;53.698;10.078;2023-07-16T11:19:46;100814.16;;;29.54;66.21
15487;BME280;7845;53.698;10.078;2023-07-16T11:22:11;100810.75;;;29.73;65.95
15487;BME280;7845;53.698;10.078;2023-07-16T11:24:41;100806.63;;;29.69;65.86
15487;BME280;7845;53.698;10.078;2023-07-16T11:27:16;100799.97;;;29.93;64.63
15487;BME280;7845;53.698;10.078;2023-07-16T11:29:50;100808.56;;;30.17;63.49
15487;BME280;7845;53.698;10.078;2023-07-16T11:32:35;100812.97;;;30.18;63.34
15487;BME280;7845;53.698;10.078;2023-07-16T11:35:03;100820.53;;;30.34;63.64
15487;BME280;7845;53.698;10.078;2023-07-16T11:37:31;100818.09;;;30.22;63.28
15487;BME280;7845;53.698;10.078;2023-07-16T11:40:07;100811.06;;;29.79;63.51
15487;BME280;7845;53.698;10.078;2023-07-16T11:42:37;100818.22;;;29.90;63.66
15487;BME280;7845;53.698;10.078;2023-07-16T11:45:04;100833.84;;;29.75;63.28
15487;BME280;7845;53.698;10.078;2023-07-16T11:47:30;100822.50;;;29.72;63.10
15487;BME280;7845;53.698;10.078;2023-07-16T11:49:56;100825.59;;;29.26;64.06
15487;BME280;7845;53.698;10.078;2023-07-16T11:52:24;100820.81;;;29.50;63.65
15487;BME280;7845;53.698;10.078;2023-07-16T11:54:50;100835.31;;;29.58;63.47
15487;BME280;7845;53.698;10.078;2023-07-16T11:57:16;100817.56;;;29.77;62.70
15487;BME280;7845;53.698;10.078;2023-07-16T11:59:41;100826.16;;;30.22;64.36
15487;BME280;7845;53.698;10.078;2023-07-16T12:02:06;100822.72;;;30.50;62.81
15487;BME280;7845;53.698;10.078;2023-07-16T12:04:32;100816.94;;;30.73;62.55
15487;BME280;7845;53.698;10.078;2023-07-16T12:06:57;100826.31;;;30.69;64.08
15487;BME280;7845;53.698;10.078;2023-07-16T12:09:23;100824.34;;;30.81;62.76
15487;BME280;7845;53.698;10.078;2023-07-16T12:11:48;100814.09;;;30.65;60.25
15487;BME280;7845;53.698;10.078;2023-07-16T12:14:13;100825.16;;;30.53;60.06
15487;BME280;7845;53.698;10.078;2023-07-16T12:16:39;100825.75;;;30.66;60.28
15487;BME280;7845;53.698;10.078;2023-07-16T12:19:07;100832.44;;;30.81;59.83
15487;BME280;7845;53.698;10.078;2023-07-16T12:21:32;100830.06;;;31.07;56.58
15487;BME280;7845;53.698;10.078;2023-07-16T12:23:58;100847.88;;;30.60;56.92
15487;BME280;7845;53.698;10.078;2023-07-16T12:26:23;100835.84;;;30.64;57.02
15487;BME280;7845;53.698;10.078;2023-07-16T12:28:48;100843.47;;;30.59;58.38
15487;BME280;7845;53.698;10.078;2023-07-16T12:31:14;100844.56;;;30.96;59.19
15487;BME280;7845;53.698;10.078;2023-07-16T12:33:40;100844.25;;;31.28;57.93
15487;BME280;7845;53.698;10.078;2023-07-16T12:36:05;100849.41;;;31.12;58.55
15487;BME280;7845;53.698;10.078;2023-07-16T12:38:31;100852.50;;;31.17;58.82
15487;BME280;7845;53.698;10.078;2023-07-16T12:40:56;100851.94;;;31.13;58.39
15487;BME280;7845;53.698;10.078;2023-07-16T12:43:21;100856.03;;;31.37;58.31
15487;BME280;7845;53.698;10.078;2023-07-16T12:45:46;100855.91;;;31.57;58.13